KINS/INS METAR and TAF weather

Enter ICAO airport designator
Station Type Date Time Source
KINS METAR 2018/12/12 06:58 UTC NOAA

KINS 120658Z AUTO 00000KT 10SM CLR 02/M07 A3009 RMK AO2 SLP181 T00201068 $


Station Type Date Time Source
KINS Decoded METAR 2018/12/12 06:58 UTC NOAA

Indian Springs, Indian Springs Auxiliary AFLD Nellis AFB, NV, United States (KINS) 36-35N 115-40W
Dec 12, 2018 - 01:58 AM EST / 2018.12.12 0658 UTC
Wind: Calm:0
Visibility: 10 mile(s):0
Sky conditions: clear
Temperature: 35.6 F (2.0 C)
Dew Point: 19.8 F (-6.8 C)
Relative Humidity: 52%
Pressure (altimeter): 30.09 in. Hg (1018 hPa)
ob: KINS 120658Z AUTO 00000KT 10SM CLR 02/M07 A3009 RMK AO2 SLP181 T00201068
cycle: 7

Station Type Date Time Source
KINS TAF 2018/12/12 22:24 UTC NOAA

TAF TAF
AMD KINS 120121Z 1122/1304 VRB06KT 9999 SKC QNH3002INS
BECMG 1217/1218 29012G20KT 9999 SKC 510009 510906 QNH3011INS
BECMG 1300/1301 VRB06KT 9999 SKC QNH3021INS TX14/1122Z TN00/1211Z


Example: see airport list